Time;durP1;ratioP1;P1;durP2;ratioP2;P2;SDS_P1;SDS_P2;PMS_P1;PMS_P2;Temp;Humidity;BMP_temperature;BMP_pressure;BME280_temperature;BME280_humidity;BME280_pressure;Samples;Min_cycle;Max_cycle;Signal;HPM_P1;HPM_P2
2022/09/04 00:03:12;;;;;;;0.40;0.30;;;16.60;99.90;;;;;;5090125;28;20215;-81
2022/09/04 00:05:49;;;;;;;0.50;0.50;;;16.70;99.90;;;;;;5051839;28;20384;-80
2022/09/04 00:08:43;;;;;;;0.30;0.30;;;16.60;99.90;;;;;;5092085;28;20247;-81
2022/09/04 00:11:55;;;;;;;0.20;0.20;;;16.50;99.90;;;;;;5088472;28;20279;-80
2022/09/04 00:14:47;;;;;;;0.30;0.30;;;16.20;99.90;;;;;;5095762;28;20237;-81
2022/09/04 00:17:34;;;;;;;0.20;0.20;;;16.10;99.90;;;;;;5085195;28;20284;-81
2022/09/04 00:20:18;;;;;;;0.30;0.30;;;16.10;99.90;;;;;;5082736;28;20204;-81
2022/09/04 00:23:18;;;;;;;0.10;0.10;;;16.10;99.90;;;;;;5099012;28;20262;-81
2022/09/04 00:25:51;;;;;;;0.10;0.10;;;16.10;99.90;;;;;;5089560;28;20180;-81
2022/09/04 00:28:30;;;;;;;0.20;0.20;;;16.20;99.90;;;;;;5089378;28;20709;-80
2022/09/04 00:31:06;;;;;;;0.30;0.30;;;16.00;99.90;;;;;;5086109;28;20216;-81
2022/09/04 00:33:55;;;;;;;0.10;0.10;;;16.00;99.90;;;;;;5087160;28;20182;-81
2022/09/04 00:36:26;;;;;;;0.73;0.73;;;16.10;99.90;;;;;;5049257;28;20214;-81
2022/09/04 00:39:01;;;;;;;0.30;0.30;;;16.00;99.90;;;;;;5094496;28;20653;-81
2022/09/04 00:41:52;;;;;;;0.20;0.20;;;16.10;99.90;;;;;;5103905;28;20552;-81
2022/09/04 00:44:36;;;;;;;0.10;0.10;;;16.10;99.90;;;;;;5092588;28;20490;-80
2022/09/04 00:47:14;;;;;;;0.20;0.20;;;16.20;99.90;;;;;;5082486;28;20199;-81
2022/09/04 00:50:02;;;;;;;0.20;0.20;;;16.30;99.90;;;;;;5086078;28;20226;-81
2022/09/04 00:52:43;;;;;;;0.33;0.20;;;16.30;99.90;;;;;;5086136;28;20262;-81
2022/09/04 00:55:52;;;;;;;0.20;0.20;;;16.50;99.90;;;;;;5088173;28;20242;-81
2022/09/04 00:58:34;;;;;;;0.10;0.10;;;16.50;99.90;;;;;;5092185;28;20279;-80
2022/09/04 01:01:01;;;;;;;0.20;0.20;;;16.60;99.90;;;;;;5086809;28;20234;-81
2022/09/04 01:03:58;;;;;;;0.27;0.27;;;16.60;99.90;;;;;;5088367;28;20694;-81
2022/09/04 01:06:38;;;;;;;0.20;0.20;;;16.60;99.90;;;;;;5091695;28;20183;-81
2022/09/04 01:09:27;;;;;;;0.20;0.20;;;16.50;99.90;;;;;;5092491;28;20244;-80
2022/09/04 01:12:30;;;;;;;0.33;0.30;;;16.20;99.90;;;;;;5085929;28;20664;-81
2022/09/04 01:15:14;;;;;;;0.20;0.20;;;16.00;99.90;;;;;;5089025;28;20245;-81
2022/09/04 01:18:06;;;;;;;0.10;0.10;;;16.10;99.90;;;;;;5087787;28;20186;-80
2022/09/04 01:20:41;;;;;;;0.10;0.10;;;16.10;99.90;;;;;;5094932;28;20207;-80
2022/09/04 01:23:19;;;;;;;0.30;0.30;;;16.20;99.90;;;;;;5092580;28;20206;-80
2022/09/04 01:25:59;;;;;;;1.43;0.40;;;16.20;99.90;;;;;;5090939;28;20275;-81
2022/09/04 01:28:47;;;;;;;0.20;0.20;;;16.20;99.90;;;;;;5097095;28;20180;-81
2022/09/04 01:31:35;;;;;;;0.20;0.20;;;16.30;99.90;;;;;;5065552;28;20209;-81
2022/09/04 01:34:00;;;;;;;0.20;0.20;;;16.40;99.90;;;;;;5087705;28;20185;-81
2022/09/04 01:36:35;;;;;;;1.00;0.43;;;16.60;99.90;;;;;;5093397;28;20316;-81
2022/09/04 01:39:02;;;;;;;0.33;0.33;;;16.80;99.90;;;;;;5089017;28;20187;-80
2022/09/04 01:41:54;;;;;;;0.27;0.27;;;16.90;99.90;;;;;;5091664;28;20216;-80
2022/09/04 01:44:20;;;;;;;0.60;0.33;;;17.00;99.90;;;;;;5097235;28;20186;-81
2022/09/04 01:47:14;;;;;;;0.30;0.30;;;17.00;99.90;;;;;;5091683;28;20184;-81
2022/09/04 01:49:50;;;;;;;0.13;0.13;;;17.00;99.90;;;;;;5109512;27;20208;-81
2022/09/04 01:52:49;;;;;;;0.10;0.10;;;17.00;99.90;;;;;;5086331;28;20187;-81
2022/09/04 01:55:43;;;;;;;0.20;0.20;;;17.00;99.90;;;;;;5087131;28;20188;-80
2022/09/04 01:58:15;;;;;;;0.10;0.10;;;17.00;99.90;;;;;;5091936;28;20541;-81
2022/09/04 02:00:52;;;;;;;0.37;0.37;;;17.10;99.90;;;;;;5083219;28;20684;-81
2022/09/04 02:03:38;;;;;;;0.50;0.50;;;17.00;99.90;;;;;;5088730;28;20255;-80
2022/09/04 02:06:21;;;;;;;0.20;0.20;;;16.70;99.90;;;;;;5089061;28;20603;-80
2022/09/04 02:09:23;;;;;;;0.30;0.30;;;16.80;99.90;;;;;;5089987;28;20192;-81
2022/09/04 02:12:02;;;;;;;0.30;0.30;;;16.80;99.90;;;;;;5083902;28;20184;-81
2022/09/04 02:14:39;;;;;;;0.10;0.10;;;17.00;99.90;;;;;;5085372;28;20219;-81
2022/09/04 02:17:09;;;;;;;4.97;0.60;;;17.00;99.90;;;;;;5095680;28;20184;-81
2022/09/04 02:19:35;;;;;;;0.73;0.40;;;17.00;99.90;;;;;;5088564;28;20231;-81
2022/09/04 02:22:31;;;;;;;0.10;0.10;;;17.00;99.90;;;;;;5088772;28;20231;-81
2022/09/04 02:25:26;;;;;;;0.17;0.17;;;17.00;99.90;;;;;;5086507;28;20191;-80
2022/09/04 02:28:17;;;;;;;0.47;0.47;;;17.00;99.90;;;;;;5086823;28;20255;-81
2022/09/04 02:30:55;;;;;;;0.33;0.33;;;17.10;99.90;;;;;;5086446;28;20208;-81
2022/09/04 02:33:20;;;;;;;0.37;0.37;;;17.20;99.90;;;;;;5090713;28;20188;-80
2022/09/04 02:36:02;;;;;;;0.20;0.20;;;17.30;99.90;;;;;;5092379;28;20187;-81
2022/09/04 02:38:46;;;;;;;0.33;0.33;;;17.50;99.90;;;;;;5090618;28;20186;-80
2022/09/04 02:41:26;;;;;;;0.13;0.13;;;17.60;99.90;;;;;;5117414;27;20204;-81
2022/09/04 02:44:28;;;;;;;0.10;0.10;;;17.70;99.90;;;;;;5083825;28;20177;-80
2022/09/04 02:47:12;;;;;;;1.30;0.30;;;17.70;99.90;;;;;;5087815;28;20182;-80
2022/09/04 02:50:02;;;;;;;0.30;0.30;;;17.70;99.90;;;;;;5096604;28;20222;-81
2022/09/04 02:52:55;;;;;;;0.50;0.30;;;17.80;99.90;;;;;;5086977;28;20176;-81
2022/09/04 02:55:36;;;;;;;0.20;0.20;;;17.80;99.90;;;;;;5087210;28;20185;-81
2022/09/04 02:58:24;;;;;;;0.50;0.50;;;17.80;99.90;;;;;;5091061;28;20184;-80
2022/09/04 03:01:01;;;;;;;0.20;0.20;;;17.80;99.90;;;;;;5091576;28;20625;-81
2022/09/04 03:03:36;;;;;;;0.37;0.37;;;17.70;99.90;;;;;;5101771;28;20199;-81
2022/09/04 03:06:39;;;;;;;0.30;0.30;;;17.60;99.90;;;;;;5090578;28;20696;-81
2022/09/04 03:09:18;;;;;;;0.37;0.37;;;17.40;99.90;;;;;;5093765;28;20196;-81
2022/09/04 03:11:59;;;;;;;0.40;0.40;;;17.20;99.90;;;;;;5088507;28;20182;-80
2022/09/04 03:14:37;;;;;;;0.47;0.43;;;17.10;99.90;;;;;;5093140;28;20213;-80
2022/09/04 03:17:36;;;;;;;0.20;0.20;;;17.10;99.90;;;;;;5090349;28;20208;-81
2022/09/04 03:20:20;;;;;;;0.97;0.43;;;17.30;99.90;;;;;;5092948;28;20753;-80
2022/09/04 03:22:59;;;;;;;0.20;0.20;;;17.40;99.90;;;;;;5099773;28;20218;-81
2022/09/04 03:26:02;;;;;;;0.27;0.20;;;17.50;99.90;;;;;;5086125;28;20182;-81
2022/09/04 03:28:52;;;;;;;0.47;0.47;;;17.70;99.90;;;;;;5096704;28;20172;-80
2022/09/04 03:31:47;;;;;;;0.20;0.20;;;17.80;99.90;;;;;;5102231;28;20201;-81
2022/09/04 03:34:41;;;;;;;0.30;0.30;;;17.80;99.90;;;;;;5094139;28;20192;-82
2022/09/04 03:37:25;;;;;;;0.77;0.47;;;17.90;99.90;;;;;;5096421;28;20208;-81
2022/09/04 03:40:21;;;;;;;0.20;0.20;;;17.60;99.90;;;;;;5090345;28;20201;-81
2022/09/04 03:43:11;;;;;;;0.33;0.30;;;17.70;99.90;;;;;;5093171;28;20205;-80
2022/09/04 03:45:48;;;;;;;0.20;0.20;;;17.70;99.90;;;;;;5088796;28;20183;-81
2022/09/04 03:48:31;;;;;;;0.30;0.20;;;17.80;99.90;;;;;;5098017;28;20184;-81
2022/09/04 03:50:59;;;;;;;0.20;0.20;;;17.70;99.90;;;;;;5080954;28;20209;-80
2022/09/04 03:53:37;;;;;;;0.27;0.27;;;17.80;99.90;;;;;;5100481;28;20192;-81
2022/09/04 03:56:24;;;;;;;0.27;0.20;;;17.90;99.90;;;;;;5092373;28;20203;-81
2022/09/04 03:59:09;;;;;;;0.60;0.60;;;18.00;99.90;;;;;;5091593;28;20192;-80
2022/09/04 04:01:53;;;;;;;0.30;0.30;;;18.10;99.90;;;;;;5084386;28;20205;-81
2022/09/04 04:04:58;;;;;;;0.30;0.30;;;18.00;99.90;;;;;;5085461;28;20195;-81
2022/09/04 04:07:46;;;;;;;0.90;0.83;;;18.10;99.90;;;;;;5052219;28;20249;-80
2022/09/04 04:10:35;;;;;;;0.50;0.40;;;18.20;99.90;;;;;;5090260;28;20216;-80
2022/09/04 04:13:26;;;;;;;1.13;1.13;;;18.10;99.90;;;;;;5092004;28;20190;-81
2022/09/04 04:16:01;;;;;;;4.43;0.60;;;18.00;99.90;;;;;;5092216;28;20653;-81
2022/09/04 04:18:35;;;;;;;0.40;0.40;;;18.10;99.90;;;;;;5096037;28;20181;-80
2022/09/04 04:21:19;;;;;;;0.50;0.50;;;18.20;99.90;;;;;;5091791;28;20617;-81
2022/09/04 04:23:56;;;;;;;0.37;0.33;;;18.20;99.90;;;;;;5095572;28;20272;-81
2022/09/04 04:26:28;;;;;;;0.50;0.43;;;18.20;99.90;;;;;;5095425;28;20191;-81
2022/09/04 04:29:07;;;;;;;0.40;0.40;;;18.20;99.90;;;;;;5097505;28;20192;-81
2022/09/04 04:32:09;;;;;;;0.23;0.23;;;18.30;99.90;;;;;;5087064;28;20236;-81
2022/09/04 04:34:55;;;;;;;0.30;0.30;;;18.30;99.90;;;;;;5111300;27;20199;-81
2022/09/04 04:37:35;;;;;;;0.40;0.40;;;18.30;99.90;;;;;;5090627;28;20674;-81
2022/09/04 04:40:40;;;;;;;0.40;0.40;;;18.30;99.90;;;;;;5093422;28;20203;-81
2022/09/04 04:43:27;;;;;;;0.50;0.43;;;18.30;99.90;;;;;;5059882;28;20243;-81
2022/09/04 04:46:02;;;;;;;0.73;0.53;;;18.30;99.90;;;;;;5085039;28;20649;-81
2022/09/04 04:48:52;;;;;;;3.20;0.33;;;18.30;99.90;;;;;;5082670;28;20196;-80
2022/09/04 04:52:01;;;;;;;0.70;0.70;;;18.20;99.90;;;;;;5085197;28;20208;-80
2022/09/04 04:54:50;;;;;;;0.20;0.20;;;17.60;99.90;;;;;;5083000;28;20214;-80
2022/09/04 04:57:54;;;;;;;0.57;0.57;;;17.30;99.90;;;;;;5096844;27;20182;-80
2022/09/04 05:00:30;;;;;;;0.30;0.30;;;17.50;99.90;;;;;;5092644;28;20215;-80
2022/09/04 05:03:18;;;;;;;0.40;0.40;;;17.50;99.90;;;;;;5085600;28;20207;-80
2022/09/04 05:06:02;;;;;;;0.40;0.33;;;17.60;99.90;;;;;;5086680;28;20173;-80
2022/09/04 05:08:43;;;;;;;0.20;0.20;;;17.60;99.90;;;;;;5090568;28;20188;-81
2022/09/04 05:11:12;;;;;;;1.60;0.43;;;17.70;99.90;;;;;;5085456;28;20258;-80
2022/09/04 05:13:53;;;;;;;0.70;0.70;;;17.30;99.90;;;;;;5094155;28;20179;-80
2022/09/04 05:16:29;;;;;;;1.57;0.90;;;17.00;99.90;;;;;;5096035;28;20193;-81
2022/09/04 05:19:09;;;;;;;0.40;0.40;;;17.20;99.90;;;;;;5083563;28;20188;-82
2022/09/04 05:21:55;;;;;;;0.63;0.60;;;17.40;99.90;;;;;;5090802;28;20208;-81
2022/09/04 05:24:47;;;;;;;1.10;0.60;;;17.10;99.90;;;;;;5086720;28;20271;-81
2022/09/04 05:27:18;;;;;;;0.37;0.37;;;17.00;99.90;;;;;;5088481;28;20521;-82
2022/09/04 05:29:50;;;;;;;2.90;0.50;;;17.10;99.90;;;;;;5092314;28;20630;-80
2022/09/04 05:32:34;;;;;;;3.63;0.60;;;17.10;99.90;;;;;;5085931;28;21452;-80
2022/09/04 05:35:09;;;;;;;0.83;0.83;;;17.00;99.90;;;;;;5085468;28;20196;-81
2022/09/04 05:37:41;;;;;;;0.50;0.50;;;16.80;99.90;;;;;;5082483;28;20207;-80
2022/09/04 05:40:22;;;;;;;0.70;0.60;;;16.80;99.90;;;;;;5102728;28;20202;-80
2022/09/04 05:43:12;;;;;;;2.60;0.57;;;16.70;99.90;;;;;;5080446;28;20210;-80
2022/09/04 05:45:46;;;;;;;0.20;0.20;;;16.60;99.90;;;;;;5084459;28;20233;-80
2022/09/04 05:48:41;;;;;;;1.00;0.77;;;16.80;99.90;;;;;;5083254;28;20201;-80
2022/09/04 05:51:28;;;;;;;0.40;0.40;;;16.80;99.90;;;;;;5093724;28;20584;-80
2022/09/04 05:54:19;;;;;;;0.90;0.90;;;17.00;99.90;;;;;;5085521;28;20610;-80
2022/09/04 05:57:00;;;;;;;1.37;0.77;;;17.10;99.90;;;;;;5090788;28;20187;-80
2022/09/04 05:59:28;;;;;;;0.80;0.57;;;17.00;99.90;;;;;;5092308;28;20180;-81
2022/09/04 06:02:06;;;;;;;0.80;0.80;;;16.90;99.90;;;;;;5090926;28;20204;-80
2022/09/04 06:04:53;;;;;;;0.90;0.40;;;17.00;99.90;;;;;;5090536;28;20249;-80
2022/09/04 06:07:35;;;;;;;0.50;0.43;;;17.20;99.90;;;;;;5088710;28;20653;-80
2022/09/04 06:10:12;;;;;;;2.00;1.07;;;17.10;99.90;;;;;;5077835;28;20249;-80
2022/09/04 06:12:56;;;;;;;1.80;1.67;;;16.80;99.90;;;;;;5095227;28;20259;-80
2022/09/04 06:15:50;;;;;;;0.30;0.30;;;16.80;99.90;;;;;;5086592;28;20180;-80
2022/09/04 06:18:32;;;;;;;1.43;0.40;;;17.00;99.90;;;;;;5090244;28;20234;-80
2022/09/04 06:21:30;;;;;;;0.47;0.40;;;17.20;99.90;;;;;;5091693;28;20214;-80
2022/09/04 06:24:23;;;;;;;0.30;0.30;;;17.40;99.90;;;;;;5092331;28;20190;-81
2022/09/04 06:27:21;;;;;;;1.07;1.03;;;17.60;99.90;;;;;;5096651;28;20185;-80
2022/09/04 06:30:02;;;;;;;2.50;2.30;;;17.70;99.90;;;;;;5083258;28;20694;-80
2022/09/04 06:32:30;;;;;;;0.43;0.43;;;17.50;99.90;;;;;;5087598;28;20179;-80
2022/09/04 06:35:16;;;;;;;5.10;1.03;;;17.40;99.90;;;;;;5094461;28;20211;-84
2022/09/04 06:37:53;;;;;;;1.60;0.83;;;17.60;99.90;;;;;;5089503;28;20199;-83
2022/09/04 06:40:39;;;;;;;0.30;0.30;;;17.70;99.90;;;;;;5090599;28;20201;-83
2022/09/04 06:43:18;;;;;;;0.57;0.57;;;17.60;99.90;;;;;;5087214;28;20232;-84
2022/09/04 06:46:01;;;;;;;0.57;0.40;;;17.50;99.90;;;;;;5091923;28;20213;-83
2022/09/04 06:48:51;;;;;;;1.87;0.80;;;17.40;99.90;;;;;;5086974;28;20177;-84
2022/09/04 06:51:23;;;;;;;0.77;0.43;;;17.50;99.90;;;;;;5084822;28;20197;-81
2022/09/04 06:54:04;;;;;;;0.57;0.57;;;17.70;99.90;;;;;;5081477;28;20199;-80
2022/09/04 06:56:54;;;;;;;1.07;1.07;;;18.00;99.90;;;;;;5082195;28;20195;-81
2022/09/04 06:59:46;;;;;;;0.60;0.60;;;18.10;99.90;;;;;;5111018;28;20198;-80
2022/09/04 07:02:33;;;;;;;0.83;0.83;;;17.90;99.90;;;;;;5058172;28;20262;-80
2022/09/04 07:05:08;;;;;;;1.93;1.03;;;17.90;99.90;;;;;;5077217;28;20185;-80
2022/09/04 07:07:59;;;;;;;1.73;1.67;;;17.70;99.90;;;;;;5087355;28;20175;-81
2022/09/04 07:10:33;;;;;;;0.30;0.20;;;17.60;99.90;;;;;;5076137;28;20197;-81
2022/09/04 07:13:22;;;;;;;0.57;0.40;;;17.80;99.90;;;;;;5075338;28;20189;-80
2022/09/04 07:15:47;;;;;;;2.83;1.23;;;18.00;99.90;;;;;;5083601;28;20173;-81
2022/09/04 07:18:34;;;;;;;1.53;0.40;;;17.90;99.90;;;;;;5082802;28;20192;-80
2022/09/04 07:21:02;;;;;;;5.33;0.57;;;18.30;99.90;;;;;;5083829;28;20212;-80
2022/09/04 07:23:47;;;;;;;0.47;0.47;;;18.60;99.90;;;;;;5083492;28;20201;-80
2022/09/04 07:26:19;;;;;;;0.40;0.40;;;18.70;99.90;;;;;;5092347;28;20560;-80
2022/09/04 07:29:05;;;;;;;1.13;1.03;;;18.60;99.90;;;;;;5086880;28;20180;-80
2022/09/04 07:31:43;;;;;;;0.93;0.67;;;18.60;99.90;;;;;;5086700;28;20262;-80
2022/09/04 07:34:38;;;;;;;1.27;0.60;;;18.20;99.90;;;;;;5096322;28;20733;-80
2022/09/04 07:37:26;;;;;;;11.33;1.03;;;18.30;99.90;;;;;;5090565;28;20180;-81
2022/09/04 07:40:13;;;;;;;0.77;0.67;;;18.20;99.90;;;;;;5084527;28;20205;-80
2022/09/04 07:42:47;;;;;;;0.40;0.40;;;18.40;99.90;;;;;;5087522;28;20209;-80
2022/09/04 07:45:38;;;;;;;1.13;0.60;;;18.70;99.90;;;;;;5092689;28;20674;-80
2022/09/04 07:48:30;;;;;;;0.40;0.40;;;19.10;99.90;;;;;;5089852;28;20208;-81
2022/09/04 07:51:16;;;;;;;0.43;0.43;;;19.30;99.90;;;;;;5085939;28;20222;-81
2022/09/04 07:53:47;;;;;;;2.17;0.80;;;19.40;99.90;;;;;;5083314;28;20204;-80
2022/09/04 07:56:16;;;;;;;4.57;0.70;;;19.10;99.90;;;;;;5082172;28;20553;-80
2022/09/04 07:58:44;;;;;;;0.63;0.63;;;18.70;99.90;;;;;;5094210;28;20184;-80
2022/09/04 08:01:16;;;;;;;0.57;0.57;;;18.80;99.90;;;;;;5087428;28;20695;-80
2022/09/04 08:04:10;;;;;;;0.50;0.30;;;19.10;99.90;;;;;;5088182;28;20231;-81
2022/09/04 08:07:00;;;;;;;0.57;0.57;;;19.40;99.90;;;;;;5088876;28;20665;-81
2022/09/04 08:09:55;;;;;;;0.50;0.50;;;19.70;99.90;;;;;;5085976;28;20210;-80
2022/09/04 08:12:44;;;;;;;0.83;0.77;;;19.80;99.90;;;;;;5097579;28;20314;-81
2022/09/04 08:15:37;;;;;;;0.60;0.53;;;19.80;99.90;;;;;;5085299;28;20193;-81
2022/09/04 08:18:27;;;;;;;1.03;0.63;;;19.70;99.90;;;;;;5083306;28;20193;-81
2022/09/04 08:21:10;;;;;;;0.27;0.27;;;19.80;99.90;;;;;;5084961;28;20210;-80
2022/09/04 08:24:00;;;;;;;0.50;0.50;;;20.10;99.90;;;;;;5089703;28;20697;-81
2022/09/04 08:26:49;;;;;;;1.40;1.30;;;20.10;99.90;;;;;;5086671;28;20199;-81
2022/09/04 08:29:41;;;;;;;1.20;0.97;;;19.70;99.90;;;;;;5090334;28;20886;-81
2022/09/04 08:32:41;;;;;;;0.67;0.67;;;19.10;99.90;;;;;;5087775;28;20529;-81
2022/09/04 08:35:37;;;;;;;0.73;0.57;;;18.90;99.90;;;;;;5090744;28;20198;-81
2022/09/04 08:38:44;;;;;;;2.27;1.20;;;19.10;99.90;;;;;;5085132;28;20211;-81
2022/09/04 08:41:28;;;;;;;1.33;0.77;;;18.90;99.90;;;;;;5089323;28;20745;-80
2022/09/04 08:44:02;;;;;;;0.83;0.83;;;19.00;99.90;;;;;;5097928;28;20555;-81
2022/09/04 08:47:00;;;;;;;0.63;0.63;;;19.00;99.90;;;;;;5078310;28;20544;-81
2022/09/04 08:50:03;;;;;;;1.47;1.00;;;19.00;99.90;;;;;;5077090;28;20186;-81
2022/09/04 08:52:49;;;;;;;0.63;0.63;;;19.00;99.90;;;;;;5080310;28;20203;-81
2022/09/04 08:55:14;;;;;;;0.40;0.40;;;19.60;99.90;;;;;;5089297;28;20213;-81
2022/09/04 08:58:02;;;;;;;1.03;0.53;;;20.00;99.90;;;;;;5082120;28;20270;-81
2022/09/04 09:00:49;;;;;;;2.03;0.70;;;20.30;99.90;;;;;;5088439;28;20210;-81
2022/09/04 09:03:52;;;;;;;0.40;0.40;;;20.50;99.90;;;;;;5093832;28;20188;-81
2022/09/04 09:06:36;;;;;;;1.00;1.00;;;20.80;99.90;;;;;;5091365;28;20191;-81
2022/09/04 09:09:16;;;;;;;0.60;0.60;;;20.60;99.90;;;;;;5086313;28;20669;-81
2022/09/04 09:12:13;;;;;;;0.40;0.40;;;20.70;99.90;;;;;;5078761;28;20200;-81
2022/09/04 09:15:10;;;;;;;0.80;0.80;;;21.10;99.90;;;;;;5105065;27;20251;-81
2022/09/04 09:17:46;;;;;;;0.37;0.37;;;21.30;99.90;;;;;;5088040;28;20180;-82
2022/09/04 09:20:40;;;;;;;0.90;0.53;;;21.60;99.90;;;;;;5106346;27;20200;-80
2022/09/04 09:23:40;;;;;;;0.93;0.93;;;21.60;99.90;;;;;;5083236;28;20685;-80
2022/09/04 09:26:25;;;;;;;2.30;1.03;;;21.20;99.90;;;;;;5084478;28;20180;-80
2022/09/04 09:29:28;;;;;;;1.47;0.97;;;21.60;99.90;;;;;;5090306;28;20209;-81
2022/09/04 09:32:03;;;;;;;0.90;0.40;;;22.00;99.90;;;;;;5088331;28;20276;-80
2022/09/04 09:35:12;;;;;;;0.40;0.40;;;22.30;99.90;;;;;;5090075;28;20270;-81
2022/09/04 09:37:56;;;;;;;0.43;0.43;;;22.50;99.90;;;;;;5085749;28;20172;-80
2022/09/04 09:40:38;;;;;;;0.90;0.90;;;22.70;99.90;;;;;;5092791;28;20622;-81
2022/09/04 09:43:28;;;;;;;1.03;0.63;;;22.80;99.90;;;;;;5084861;28;20187;-81
2022/09/04 09:46:08;;;;;;;0.50;0.50;;;23.00;99.90;;;;;;5086716;28;20248;-81
2022/09/04 09:49:11;;;;;;;0.80;0.80;;;23.30;99.90;;;;;;5079572;28;20995;-81
2022/09/04 09:52:14;;;;;;;0.30;0.30;;;23.60;99.90;;;;;;5083598;28;20196;-80
2022/09/04 09:55:06;;;;;;;0.37;0.30;;;23.70;99.90;;;;;;5089075;28;20172;-81
2022/09/04 09:57:44;;;;;;;0.77;0.77;;;23.60;99.90;;;;;;5090113;28;20184;-81
2022/09/04 10:00:11;;;;;;;0.97;0.73;;;23.30;99.90;;;;;;5092030;28;20233;-81
2022/09/04 10:03:00;;;;;;;0.60;0.60;;;22.90;99.90;;;;;;5090888;28;20717;-81
2022/09/04 10:05:44;;;;;;;0.60;0.60;;;23.20;99.90;;;;;;5089981;28;20216;-81
2022/09/04 10:08:23;;;;;;;0.30;0.30;;;23.30;99.90;;;;;;5090358;28;20849;-80
2022/09/04 10:11:01;;;;;;;0.60;0.60;;;23.80;99.90;;;;;;5087844;28;20200;-81
2022/09/04 10:13:51;;;;;;;0.57;0.57;;;23.80;99.90;;;;;;5082054;28;20232;-80
2022/09/04 10:17:02;;;;;;;0.57;0.57;;;24.00;99.90;;;;;;5095608;28;20229;-81
2022/09/04 10:20:03;;;;;;;0.80;0.80;;;24.10;99.90;;;;;;5085641;28;20551;-80
2022/09/04 10:23:06;;;;;;;0.47;0.40;;;24.00;99.90;;;;;;5081112;28;20325;-81
2022/09/04 10:25:41;;;;;;;0.40;0.40;;;24.30;99.90;;;;;;5091900;28;20210;-81
2022/09/04 10:28:28;;;;;;;0.40;0.40;;;24.30;99.90;;;;;;5093521;28;20172;-81
2022/09/04 10:31:05;;;;;;;0.87;0.83;;;24.20;99.90;;;;;;5094820;28;20253;-80
2022/09/04 10:33:58;;;;;;;0.47;0.47;;;24.30;99.90;;;;;;5086717;28;20179;-81
2022/09/04 10:36:36;;;;;;;0.73;0.73;;;24.30;99.90;;;;;;5090965;28;20195;-81
2022/09/04 10:42:07;;;;;;;0.33;0.33;;;23.90;99.90;;;;;;5092521;28;20207;-81
2022/09/04 10:44:42;;;;;;;0.87;0.53;;;23.90;99.90;;;;;;5086920;28;20893;-81
2022/09/04 10:47:15;;;;;;;0.47;0.47;;;24.00;99.90;;;;;;5089561;28;20179;-81
2022/09/04 10:50:21;;;;;;;0.47;0.47;;;23.90;99.90;;;;;;5087227;28;20696;-81
2022/09/04 10:53:04;;;;;;;1.07;1.03;;;24.20;99.90;;;;;;5081657;28;20177;-81
2022/09/04 10:55:35;;;;;;;0.40;0.40;;;23.80;99.90;;;;;;5085292;28;20208;-81
2022/09/04 10:58:26;;;;;;;0.60;0.60;;;23.80;99.90;;;;;;5086597;28;20178;-81
2022/09/04 11:01:16;;;;;;;0.30;0.30;;;23.70;99.90;;;;;;5085888;28;20200;-81
2022/09/04 11:04:26;;;;;;;0.50;0.50;;;23.50;99.90;;;;;;5087896;28;20204;-81
2022/09/04 11:07:29;;;;;;;0.50;0.33;;;23.30;99.90;;;;;;5086262;28;20192;-81
2022/09/04 11:10:18;;;;;;;0.93;0.93;;;23.80;99.90;;;;;;5097099;28;20192;-81
2022/09/04 11:12:47;;;;;;;0.50;0.50;;;24.10;99.90;;;;;;5090934;28;20184;-81
2022/09/04 11:15:18;;;;;;;0.50;0.50;;;24.30;99.90;;;;;;5089857;28;20578;-80
2022/09/04 11:18:11;;;;;;;0.43;0.43;;;24.40;99.90;;;;;;5091190;28;20223;-81
2022/09/04 11:20:58;;;;;;;0.30;0.30;;;24.30;99.90;;;;;;5091413;28;20208;-80
2022/09/04 11:23:47;;;;;;;1.23;0.57;;;24.10;99.90;;;;;;5093455;28;20204;-82
2022/09/04 11:26:44;;;;;;;0.53;0.50;;;24.30;99.90;;;;;;5087110;28;20255;-81
2022/09/04 11:29:18;;;;;;;0.40;0.40;;;24.50;99.90;;;;;;5092682;28;20195;-81
2022/09/04 11:32:10;;;;;;;0.40;0.40;;;24.70;99.90;;;;;;5090345;28;20189;-81
2022/09/04 11:34:57;;;;;;;0.67;0.67;;;24.90;99.90;;;;;;5087722;28;20176;-81
2022/09/04 11:37:32;;;;;;;0.37;0.37;;;25.10;99.90;;;;;;5097126;28;20184;-81
2022/09/04 11:40:31;;;;;;;0.77;0.77;;;24.70;99.90;;;;;;5095999;28;20279;-81
2022/09/04 11:43:30;;;;;;;0.60;0.60;;;24.90;99.90;;;;;;5086645;28;20228;-81
2022/09/04 11:46:02;;;;;;;0.77;0.77;;;24.60;99.90;;;;;;5085563;28;20645;-81
2022/09/04 11:48:36;;;;;;;0.23;0.23;;;24.90;99.90;;;;;;5102187;28;20260;-81
2022/09/04 11:51:04;;;;;;;2.03;0.63;;;25.20;99.90;;;;;;5094755;28;20203;-81
2022/09/04 11:53:36;;;;;;;0.50;0.50;;;25.40;99.90;;;;;;5084195;28;20199;-81
2022/09/04 11:56:17;;;;;;;2.07;0.90;;;25.20;99.90;;;;;;5088309;28;20271;-81
2022/09/04 11:58:52;;;;;;;0.33;0.33;;;25.30;99.90;;;;;;5090418;28;20180;-81
2022/09/04 12:02:03;;;;;;;1.07;0.70;;;25.30;99.90;;;;;;5082912;28;20708;-81
2022/09/04 12:05:04;;;;;;;0.60;0.53;;;25.30;99.90;;;;;;5039642;28;20211;-81
2022/09/04 12:07:38;;;;;;;0.50;0.40;;;25.50;99.90;;;;;;5035654;28;20265;-81
2022/09/04 12:10:27;;;;;;;0.30;0.30;;;25.40;99.90;;;;;;5095028;28;20556;-81
2022/09/04 12:12:59;;;;;;;0.50;0.50;;;25.70;99.90;;;;;;5096745;28;20187;-81
2022/09/04 12:15:53;;;;;;;0.47;0.47;;;25.80;99.90;;;;;;5093188;28;20180;-81
2022/09/04 12:19:01;;;;;;;0.40;0.40;;;26.10;99.90;;;;;;5089125;28;20219;-81
2022/09/04 12:21:36;;;;;;;0.40;0.40;;;26.30;99.90;;;;;;5095045;28;20192;-81
2022/09/04 12:24:12;;;;;;;0.40;0.40;;;26.40;99.90;;;;;;5093949;28;20300;-81
2022/09/04 12:27:02;;;;;;;0.73;0.70;;;26.60;99.90;;;;;;5089003;28;20649;-80
2022/09/04 12:29:42;;;;;;;1.00;0.70;;;26.80;99.90;;;;;;5083141;28;20177;-81
2022/09/04 12:32:25;;;;;;;0.70;0.70;;;26.80;99.90;;;;;;5084673;28;20252;-81
2022/09/04 12:35:25;;;;;;;0.53;0.53;;;26.90;99.90;;;;;;5097291;28;20180;-81
2022/09/04 12:37:59;;;;;;;0.87;0.87;;;27.10;99.90;;;;;;5089077;28;20181;-81
2022/09/04 12:41:03;;;;;;;0.67;0.33;;;27.00;99.90;;;;;;5094931;28;20217;-81
2022/09/04 12:43:31;;;;;;;0.30;0.30;;;26.90;99.90;;;;;;5065866;28;20227;-81
2022/09/04 12:46:11;;;;;;;0.30;0.30;;;26.50;99.90;;;;;;5087635;28;20185;-81
2022/09/04 12:49:08;;;;;;;0.40;0.40;;;26.70;99.90;;;;;;5090724;28;20188;-80
2022/09/04 12:52:02;;;;;;;0.47;0.47;;;27.00;99.90;;;;;;5088610;28;20207;-81
2022/09/04 12:54:51;;;;;;;0.30;0.30;;;27.40;99.90;;;;;;5085408;28;20779;-80
2022/09/04 12:57:41;;;;;;;0.57;0.37;;;27.50;99.90;;;;;;5063084;28;20193;-81
2022/09/04 13:00:10;;;;;;;0.40;0.40;;;27.20;99.90;;;;;;5086741;28;20189;-81
2022/09/04 13:02:51;;;;;;;0.43;0.43;;;27.40;99.90;;;;;;5092015;28;20208;-81
2022/09/04 13:05:37;;;;;;;0.50;0.50;;;27.50;99.90;;;;;;5097520;28;20184;-81
2022/09/04 13:08:40;;;;;;;0.43;0.43;;;27.60;99.90;;;;;;5098387;28;20188;-81
2022/09/04 13:11:22;;;;;;;0.40;0.40;;;27.60;99.90;;;;;;5091890;28;20203;-81
2022/09/04 13:14:19;;;;;;;0.53;0.53;;;27.50;99.90;;;;;;5102257;28;20178;-80
2022/09/04 13:16:47;;;;;;;1.23;0.67;;;27.20;99.90;;;;;;5092348;28;20260;-80
2022/09/04 13:19:19;;;;;;;0.40;0.40;;;27.10;99.90;;;;;;5091892;28;20211;-80
2022/09/04 13:22:06;;;;;;;0.37;0.37;;;27.30;99.90;;;;;;5084309;28;20662;-81
2022/09/04 13:24:40;;;;;;;0.43;0.40;;;27.30;99.90;;;;;;5099823;28;20180;-80
2022/09/04 13:27:27;;;;;;;1.20;1.07;;;27.30;99.90;;;;;;5093382;28;20184;-80
2022/09/04 13:30:02;;;;;;;0.77;0.50;;;27.50;99.90;;;;;;5089531;28;20212;-80
2022/09/04 13:32:52;;;;;;;1.20;0.77;;;27.50;99.90;;;;;;5089803;28;20174;-81
2022/09/04 13:35:57;;;;;;;0.33;0.33;;;26.60;99.90;;;;;;5094497;28;20181;-81
2022/09/04 13:38:41;;;;;;;0.83;0.47;;;26.90;99.90;;;;;;5010707;28;20192;-81
2022/09/04 13:41:32;;;;;;;0.70;0.40;;;27.40;99.90;;;;;;5084065;28;20221;-81
2022/09/04 13:44:22;;;;;;;1.27;0.83;;;27.70;99.90;;;;;;5095490;28;20708;-81
2022/09/04 13:46:48;;;;;;;0.67;0.67;;;27.90;99.90;;;;;;5088233;28;20532;-80
2022/09/04 13:49:40;;;;;;;0.30;0.30;;;27.90;99.90;;;;;;5091979;28;20196;-81
2022/09/04 13:52:14;;;;;;;0.30;0.30;;;28.10;99.90;;;;;;5086437;28;20239;-81
2022/09/04 13:54:51;;;;;;;0.32;0.32;;;28.30;99.90;;;;;;5098486;28;20552;-80
2022/09/04 13:57:20;;;;;;;0.40;0.40;;;28.20;99.90;;;;;;5097216;28;20191;-80
2022/09/04 13:59:48;;;;;;;0.50;0.50;;;28.30;99.90;;;;;;5090464;28;20731;-80
2022/09/04 14:02:24;;;;;;;0.27;0.27;;;28.30;99.90;;;;;;5079839;28;20200;-81
2022/09/04 14:05:12;;;;;;;0.38;0.38;;;28.40;99.90;;;;;;5086944;28;20255;-81
2022/09/04 14:07:41;;;;;;;0.47;0.47;;;28.40;99.90;;;;;;5099939;28;20168;-81
2022/09/04 14:10:16;;;;;;;0.22;0.22;;;28.30;99.90;;;;;;5091963;28;20628;-81
2022/09/04 14:13:12;;;;;;;0.30;0.30;;;28.40;99.90;;;;;;5098820;28;20175;-81
2022/09/04 14:15:50;;;;;;;0.85;0.40;;;28.60;99.90;;;;;;5094468;28;20186;-81
2022/09/04 14:18:29;;;;;;;0.47;0.47;;;28.50;99.90;;;;;;5087249;28;20560;-80
2022/09/04 14:21:03;;;;;;;0.30;0.30;;;28.60;99.90;;;;;;5088639;28;20200;-81
2022/09/04 14:23:46;;;;;;;0.32;0.30;;;28.60;99.90;;;;;;5087249;28;20210;-81